createdAt,value
2023-05-04T00:02:15.380Z,99.90
2023-05-04T00:04:43.559Z,99.90
2023-05-04T00:07:11.715Z,99.90
2023-05-04T00:09:40.339Z,99.90
2023-05-04T00:12:10.088Z,99.90
2023-05-04T00:15:02.517Z,99.90
2023-05-04T00:18:01.469Z,99.90
2023-05-04T00:20:40.598Z,99.90
2023-05-04T00:23:18.131Z,99.90
2023-05-04T00:25:49.564Z,99.90
2023-05-04T00:28:39.060Z,99.90
2023-05-04T00:31:23.358Z,99.90
2023-05-04T00:33:57.794Z,99.90
2023-05-04T00:36:34.175Z,99.90
2023-05-04T00:39:16.526Z,99.90
2023-05-04T00:41:49.922Z,99.90
2023-05-04T00:44:32.103Z,99.90
2023-05-04T00:47:20.392Z,99.90
2023-05-04T00:50:05.045Z,99.90
2023-05-04T00:52:46.188Z,99.90
2023-05-04T00:55:33.832Z,99.90
2023-05-04T00:58:09.228Z,99.90
2023-05-04T01:00:44.318Z,99.90
2023-05-04T01:03:23.575Z,99.90
2023-05-04T01:06:27.327Z,99.90
2023-05-04T01:09:10.381Z,99.90
2023-05-04T01:11:54.518Z,99.90
2023-05-04T01:14:42.036Z,99.90
2023-05-04T01:17:16.536Z,99.90
2023-05-04T01:19:55.979Z,99.90
2023-05-04T01:22:33.393Z,99.90
2023-05-04T01:25:08.412Z,99.90
2023-05-04T01:27:43.827Z,99.90
2023-05-04T01:30:18.983Z,99.90
2023-05-04T01:32:48.549Z,99.90
2023-05-04T01:35:17.128Z,99.90
2023-05-04T01:37:47.285Z,99.90
2023-05-04T01:40:15.733Z,99.90
2023-05-04T01:42:43.776Z,99.90
2023-05-04T01:45:12.742Z,99.90
2023-05-04T01:47:40.940Z,99.90
2023-05-04T01:50:10.018Z,99.90
2023-05-04T01:52:38.100Z,99.90
2023-05-04T01:55:08.001Z,99.90
2023-05-04T01:57:36.127Z,99.90
2023-05-04T02:00:04.637Z,99.90
2023-05-04T02:02:32.941Z,99.90
2023-05-04T02:05:01.001Z,99.90
2023-05-04T02:07:29.056Z,99.90
2023-05-04T02:09:57.098Z,99.90
2023-05-04T02:12:26.516Z,99.90
2023-05-04T02:14:54.550Z,99.90
2023-05-04T02:17:22.586Z,99.90
2023-05-04T02:19:50.584Z,99.90
2023-05-04T02:22:18.777Z,99.90
2023-05-04T02:24:46.773Z,99.90
2023-05-04T02:27:14.804Z,99.90
2023-05-04T02:29:44.180Z,99.90
2023-05-04T02:32:12.157Z,99.90
2023-05-04T02:34:40.142Z,99.90
2023-05-04T02:37:09.302Z,99.90
2023-05-04T02:39:37.346Z,99.90
2023-05-04T02:42:06.440Z,99.90
2023-05-04T02:44:34.466Z,99.90
2023-05-04T02:47:05.876Z,99.90
2023-05-04T02:49:33.908Z,99.90
2023-05-04T02:52:01.846Z,99.90
2023-05-04T02:54:30.978Z,99.90
2023-05-04T02:56:59.018Z,99.90
2023-05-04T02:59:27.079Z,99.90
2023-05-04T03:01:55.307Z,99.90
2023-05-04T03:04:31.883Z,99.90
2023-05-04T03:06:59.870Z,99.90
2023-05-04T03:09:27.916Z,99.90
2023-05-04T03:11:56.195Z,99.90
2023-05-04T03:14:24.193Z,99.90
2023-05-04T03:16:52.272Z,99.90
2023-05-04T03:19:34.151Z,99.90
2023-05-04T03:22:02.196Z,99.90
2023-05-04T03:24:30.366Z,99.90
2023-05-04T03:26:58.428Z,99.90
2023-05-04T03:29:26.492Z,99.90
2023-05-04T03:31:56.602Z,99.90
2023-05-04T03:34:24.590Z,99.90
2023-05-04T03:36:54.199Z,99.90
2023-05-04T03:39:22.230Z,99.90
2023-05-04T03:41:52.192Z,99.90
2023-05-04T03:44:20.205Z,99.90
2023-05-04T03:47:01.341Z,99.90
2023-05-04T03:49:29.319Z,99.90
2023-05-04T03:51:58.630Z,99.90
2023-05-04T03:54:27.496Z,99.90
2023-05-04T03:56:55.498Z,99.90
2023-05-04T03:59:23.548Z,99.90
2023-05-04T04:01:54.207Z,99.90
2023-05-04T04:04:22.215Z,99.90
2023-05-04T04:06:50.229Z,99.90
2023-05-04T04:09:19.869Z,99.90
2023-05-04T04:11:47.852Z,99.90
2023-05-04T04:14:15.876Z,99.90
2023-05-04T04:16:43.940Z,99.90
2023-05-04T04:19:12.213Z,99.90
2023-05-04T04:21:40.310Z,99.90
2023-05-04T04:24:08.356Z,99.90
2023-05-04T04:26:37.976Z,99.90
2023-05-04T04:29:06.015Z,99.90
2023-05-04T04:31:34.222Z,99.90
2023-05-04T04:34:02.246Z,99.90
2023-05-04T04:36:36.334Z,99.90
2023-05-04T04:39:05.877Z,99.90
2023-05-04T04:41:34.170Z,99.90
2023-05-04T04:44:10.632Z,99.90
2023-05-04T04:46:38.853Z,99.90
2023-05-04T04:49:14.105Z,99.90
2023-05-04T04:51:42.142Z,99.90
2023-05-04T04:54:10.146Z,99.90
2023-05-04T04:56:41.483Z,99.90
2023-05-04T04:59:11.169Z,99.90
2023-05-04T05:01:45.342Z,99.90
2023-05-04T05:04:13.402Z,99.90
2023-05-04T05:06:41.853Z,99.90
2023-05-04T05:09:10.947Z,99.90
2023-05-04T05:11:42.028Z,99.90
2023-05-04T05:14:11.380Z,99.90
2023-05-04T05:16:39.417Z,99.90
2023-05-04T05:19:13.464Z,99.90
2023-05-04T05:21:41.410Z,99.90
2023-05-04T05:24:09.424Z,99.90
2023-05-04T05:26:43.378Z,99.90
2023-05-04T05:29:12.801Z,99.90
2023-05-04T05:31:41.101Z,99.90
2023-05-04T05:34:09.253Z,99.90
2023-05-04T05:36:37.193Z,99.90
2023-05-04T05:39:05.330Z,99.90
2023-05-04T05:41:34.396Z,99.90
2023-05-04T05:44:02.832Z,99.90
2023-05-04T05:46:32.230Z,99.90
2023-05-04T05:49:00.442Z,99.90
2023-05-04T05:51:28.418Z,99.90
2023-05-04T05:53:56.377Z,99.90
2023-05-04T05:56:24.454Z,99.90
2023-05-04T05:58:52.878Z,99.90
2023-05-04T06:01:20.942Z,99.90
2023-05-04T06:03:50.492Z,99.90
2023-05-04T06:06:18.989Z,99.90
2023-05-04T06:08:47.200Z,99.90
2023-05-04T06:11:15.363Z,99.90
2023-05-04T06:13:43.381Z,99.90
2023-05-04T06:16:11.432Z,99.90
2023-05-04T06:18:39.469Z,99.90
2023-05-04T06:21:08.832Z,99.90
2023-05-04T06:23:37.155Z,99.90
2023-05-04T06:26:07.814Z,99.90
2023-05-04T06:28:36.535Z,99.90
2023-05-04T06:31:06.658Z,99.90
2023-05-04T06:33:34.741Z,99.90
2023-05-04T06:36:03.624Z,99.90
2023-05-04T06:38:33.997Z,99.90
2023-05-04T06:41:06.872Z,99.90
2023-05-04T06:43:35.268Z,99.90
2023-05-04T06:46:04.030Z,99.90
2023-05-04T06:48:32.843Z,99.90
2023-05-04T06:51:02.287Z,99.90
2023-05-04T06:53:32.857Z,99.90
2023-05-04T06:56:02.678Z,99.90
2023-05-04T06:58:36.672Z,99.90
2023-05-04T07:01:04.737Z,99.90
2023-05-04T07:03:32.810Z,99.90
2023-05-04T07:06:00.884Z,99.90
2023-05-04T07:08:28.875Z,99.90
2023-05-04T07:10:58.294Z,99.90
2023-05-04T07:13:26.331Z,99.90
2023-05-04T07:15:54.378Z,99.90
2023-05-04T07:18:22.819Z,99.90
2023-05-04T07:20:51.355Z,99.90
2023-05-04T07:23:20.978Z,99.90
2023-05-04T07:25:48.990Z,99.90
2023-05-04T07:28:18.353Z,99.90
2023-05-04T07:30:46.426Z,99.90
2023-05-04T07:33:15.083Z,99.90
2023-05-04T07:35:43.050Z,99.90
2023-05-04T07:38:11.713Z,99.90
2023-05-04T07:40:39.801Z,99.90
2023-05-04T07:43:07.830Z,99.90
2023-05-04T07:45:37.200Z,99.90
2023-05-04T07:48:05.495Z,99.90
2023-05-04T07:50:35.096Z,99.90
2023-05-04T07:53:03.824Z,99.90
2023-05-04T07:55:31.814Z,99.90
2023-05-04T07:57:59.813Z,99.90
2023-05-04T08:00:28.260Z,99.90
2023-05-04T08:02:58.222Z,99.90
2023-05-04T08:05:26.200Z,99.90
2023-05-04T08:07:54.213Z,99.90
2023-05-04T08:10:22.235Z,99.90
2023-05-04T08:12:50.312Z,99.90
2023-05-04T08:15:18.849Z,99.50
2023-05-04T08:17:46.937Z,97.10
2023-05-04T08:20:18.489Z,99.90
2023-05-04T08:22:46.870Z,96.40
2023-05-04T08:25:15.042Z,99.80
2023-05-04T08:27:43.024Z,99.90
2023-05-04T08:30:22.682Z,99.90
2023-05-04T08:32:51.299Z,97.50
2023-05-04T08:35:25.866Z,95.60
2023-05-04T08:37:53.848Z,93.50
2023-05-04T08:40:25.057Z,91.70
2023-05-04T08:42:53.879Z,86.50
2023-05-04T08:45:23.144Z,90.10
2023-05-04T08:47:51.820Z,90.40
2023-05-04T08:50:20.029Z,84.90
2023-05-04T08:52:49.985Z,82.70
2023-05-04T08:55:19.567Z,78.90
2023-05-04T08:57:50.063Z,81.00
2023-05-04T09:00:20.877Z,75.20
2023-05-04T09:03:05.079Z,76.10
2023-05-04T09:05:33.640Z,82.50
2023-05-04T09:08:03.023Z,80.70
2023-05-04T09:10:32.017Z,80.10
2023-05-04T09:13:00.063Z,71.70
2023-05-04T09:15:28.088Z,76.10
2023-05-04T09:18:03.397Z,63.40
2023-05-04T09:20:31.953Z,60.40
2023-05-04T09:23:13.210Z,58.20
2023-05-04T09:25:48.863Z,59.90
2023-05-04T09:28:18.215Z,61.20
2023-05-04T09:31:05.336Z,59.40
2023-05-04T09:33:35.820Z,57.10
2023-05-04T09:36:15.818Z,58.40
2023-05-04T09:39:13.782Z,52.80
2023-05-04T09:41:42.704Z,51.50
2023-05-04T09:44:22.377Z,56.70
2023-05-04T09:46:55.409Z,56.50
2023-05-04T09:49:34.550Z,52.60
2023-05-04T09:52:03.666Z,52.40
2023-05-04T09:54:37.840Z,52.60
2023-05-04T09:57:15.191Z,52.80
2023-05-04T09:59:43.833Z,53.10
2023-05-04T10:02:22.644Z,53.10
2023-05-04T10:04:52.721Z,51.60
2023-05-04T10:07:21.187Z,52.80
2023-05-04T10:09:52.527Z,50.20
2023-05-04T10:12:20.689Z,47.50
2023-05-04T10:14:48.761Z,47.50
2023-05-04T10:17:40.692Z,48.10
2023-05-04T10:20:31.389Z,47.00
2023-05-04T10:23:15.037Z,47.30
2023-05-04T10:26:05.962Z,44.30
2023-05-04T10:28:45.326Z,42.00
2023-05-04T10:31:13.628Z,40.60
2023-05-04T10:33:42.639Z,42.20
2023-05-04T10:36:11.700Z,42.00
2023-05-04T10:38:41.386Z,41.90
2023-05-04T10:41:18.035Z,40.90
2023-05-04T10:43:48.968Z,39.70
2023-05-04T10:46:18.585Z,42.30
2023-05-04T10:48:46.676Z,40.60
2023-05-04T10:51:21.268Z,39.20
2023-05-04T10:53:49.419Z,37.20
2023-05-04T10:56:26.350Z,36.90
2023-05-04T10:58:54.830Z,36.50
2023-05-04T11:01:24.364Z,35.30
2023-05-04T11:03:53.667Z,37.70
2023-05-04T11:06:24.463Z,38.50
2023-05-04T11:09:00.884Z,36.80
2023-05-04T11:11:30.558Z,34.20
2023-05-04T11:13:58.717Z,35.30
2023-05-04T11:16:28.447Z,36.80
2023-05-04T11:18:56.508Z,36.60
2023-05-04T11:21:26.092Z,36.90
2023-05-04T11:23:57.370Z,38.00
2023-05-04T11:26:25.846Z,36.50
2023-05-04T11:29:14.615Z,35.60
2023-05-04T11:31:44.360Z,36.20
2023-05-04T11:34:20.949Z,34.70
2023-05-04T11:36:49.924Z,34.80
2023-05-04T11:39:18.351Z,35.40
2023-05-04T11:41:46.354Z,35.90
2023-05-04T11:44:17.942Z,35.10
2023-05-04T11:46:47.881Z,32.80
2023-05-04T11:49:16.098Z,32.40
2023-05-04T11:51:44.110Z,32.90
2023-05-04T11:54:21.674Z,35.10
2023-05-04T11:56:49.685Z,33.20
2023-05-04T11:59:19.010Z,33.00
2023-05-04T12:01:49.431Z,32.20
2023-05-04T12:04:17.491Z,33.60
2023-05-04T12:06:46.392Z,32.30
2023-05-04T12:09:14.415Z,33.60
2023-05-04T12:11:42.914Z,34.00
2023-05-04T12:14:13.773Z,33.80
2023-05-04T12:16:54.397Z,32.50
2023-05-04T12:19:22.597Z,34.40
2023-05-04T12:21:53.010Z,32.70
2023-05-04T12:24:23.548Z,31.60
2023-05-04T12:26:51.820Z,30.70
2023-05-04T12:29:19.906Z,29.60
2023-05-04T12:31:49.616Z,29.50
2023-05-04T12:34:17.841Z,29.70
2023-05-04T12:36:46.305Z,30.50
2023-05-04T12:39:14.687Z,30.70
2023-05-04T12:41:43.070Z,29.60
2023-05-04T12:44:11.561Z,29.00
2023-05-04T12:46:39.709Z,29.60
2023-05-04T12:49:15.942Z,31.50
2023-05-04T12:51:44.247Z,30.10
2023-05-04T12:54:12.237Z,30.00
2023-05-04T12:56:40.553Z,29.80
2023-05-04T12:59:08.586Z,30.80
2023-05-04T13:01:36.810Z,30.00
2023-05-04T13:04:04.869Z,30.00
2023-05-04T13:06:34.248Z,30.50
2023-05-04T13:09:05.712Z,29.70
2023-05-04T13:11:33.753Z,28.60
2023-05-04T13:14:01.844Z,27.80
2023-05-04T13:16:30.764Z,27.70
2023-05-04T13:18:59.205Z,28.20
2023-05-04T13:21:27.240Z,27.90
2023-05-04T13:23:57.559Z,25.60
2023-05-04T13:26:25.588Z,25.20
2023-05-04T13:28:53.575Z,24.70
2023-05-04T13:31:22.243Z,25.60
2023-05-04T13:33:58.093Z,25.80
2023-05-04T13:36:26.141Z,25.40
2023-05-04T13:38:57.943Z,25.60
2023-05-04T13:41:26.268Z,26.70
2023-05-04T13:43:54.638Z,25.90
2023-05-04T13:46:23.885Z,26.50
2023-05-04T13:48:52.130Z,25.00
2023-05-04T13:51:20.114Z,24.50
2023-05-04T13:53:50.101Z,24.10
2023-05-04T13:56:19.468Z,25.70
2023-05-04T13:58:47.418Z,25.60
2023-05-04T14:01:15.990Z,23.70
2023-05-04T14:03:44.065Z,23.70
2023-05-04T14:06:12.338Z,22.80
2023-05-04T14:08:40.329Z,22.30
2023-05-04T14:11:08.359Z,23.20
2023-05-04T14:13:37.710Z,23.10
2023-05-04T14:16:06.144Z,22.50
2023-05-04T14:18:34.200Z,22.30
2023-05-04T14:21:02.182Z,21.50
2023-05-04T14:23:30.242Z,22.60
2023-05-04T14:25:58.214Z,20.70
2023-05-04T14:28:26.807Z,20.80
2023-05-04T14:30:56.242Z,22.00
2023-05-04T14:33:24.389Z,22.90
2023-05-04T14:35:52.511Z,22.60
2023-05-04T14:38:22.589Z,21.60
2023-05-04T14:40:52.931Z,21.50
2023-05-04T14:43:26.852Z,21.70
2023-05-04T14:45:57.448Z,22.00
2023-05-04T14:48:27.513Z,22.10
2023-05-04T14:50:56.001Z,22.90
2023-05-04T14:53:24.561Z,22.80
2023-05-04T14:55:52.689Z,22.70
2023-05-04T14:58:20.706Z,23.50
2023-05-04T15:00:48.738Z,23.30
2023-05-04T15:03:18.438Z,23.60
2023-05-04T15:05:46.779Z,23.60
2023-05-04T15:08:14.766Z,23.60
2023-05-04T15:10:42.802Z,23.50
2023-05-04T15:13:12.266Z,23.00
2023-05-04T15:15:40.818Z,23.60
2023-05-04T15:18:09.195Z,23.50
2023-05-04T15:20:39.375Z,23.40
2023-05-04T15:23:14.368Z,23.30
2023-05-04T15:25:42.757Z,24.30
2023-05-04T15:28:13.671Z,25.80
2023-05-04T15:30:43.061Z,25.50
2023-05-04T15:33:11.306Z,25.10
2023-05-04T15:35:40.816Z,25.80
2023-05-04T15:38:08.895Z,25.90
2023-05-04T15:40:37.057Z,24.30
2023-05-04T15:43:05.095Z,24.40
2023-05-04T15:45:33.097Z,24.70
2023-05-04T15:48:01.161Z,25.50
2023-05-04T15:50:30.440Z,25.50
2023-05-04T15:53:00.765Z,25.80
2023-05-04T15:55:28.854Z,26.60
2023-05-04T15:57:56.868Z,27.10
2023-05-04T16:00:26.125Z,27.00
2023-05-04T16:03:00.681Z,27.40
2023-05-04T16:05:28.751Z,27.60
2023-05-04T16:07:57.063Z,27.90
2023-05-04T16:10:26.419Z,28.10
2023-05-04T16:12:54.437Z,27.70
2023-05-04T16:15:22.516Z,27.80
2023-05-04T16:17:50.499Z,27.00
2023-05-04T16:20:25.770Z,26.40
2023-05-04T16:22:53.761Z,26.80
2023-05-04T16:25:21.772Z,27.00
2023-05-04T16:27:52.269Z,26.80
2023-05-04T16:30:21.604Z,27.20
2023-05-04T16:32:49.618Z,27.50
2023-05-04T16:35:17.703Z,27.80
2023-05-04T16:37:45.726Z,27.40
2023-05-04T16:40:15.490Z,27.40
2023-05-04T16:42:43.680Z,28.10
2023-05-04T16:45:14.579Z,27.80
2023-05-04T16:47:43.274Z,28.70
2023-05-04T16:50:12.745Z,29.90
2023-05-04T16:52:41.364Z,29.90
2023-05-04T16:55:12.388Z,31.90
2023-05-04T16:57:40.841Z,30.60
2023-05-04T17:00:10.565Z,30.80
2023-05-04T17:02:40.294Z,31.40
2023-05-04T17:05:10.391Z,33.00
2023-05-04T17:07:40.109Z,34.30
2023-05-04T17:10:09.406Z,36.30
2023-05-04T17:12:37.475Z,33.50
2023-05-04T17:15:06.616Z,35.90
2023-05-04T17:17:35.698Z,38.10
2023-05-04T17:20:06.284Z,38.20
2023-05-04T17:22:34.558Z,36.20
2023-05-04T17:25:02.772Z,37.40
2023-05-04T17:27:30.783Z,39.70
2023-05-04T17:30:01.842Z,37.70
2023-05-04T17:32:30.763Z,37.40
2023-05-04T17:35:03.405Z,41.20
2023-05-04T17:37:41.478Z,41.70
2023-05-04T17:40:10.597Z,43.00
2023-05-04T17:42:38.615Z,43.90
2023-05-04T17:45:08.464Z,44.80
2023-05-04T17:47:36.910Z,46.40
2023-05-04T17:50:05.840Z,52.10
2023-05-04T17:52:34.039Z,52.50
2023-05-04T17:55:03.415Z,51.50
2023-05-04T17:57:31.553Z,54.00
2023-05-04T17:59:59.721Z,54.70
2023-05-04T18:02:35.751Z,55.20
2023-05-04T18:05:03.792Z,56.20
2023-05-04T18:07:31.794Z,57.80
2023-05-04T18:09:59.834Z,59.70
2023-05-04T18:12:29.235Z,61.20
2023-05-04T18:14:57.281Z,65.10
2023-05-04T18:17:26.421Z,78.30
2023-05-04T18:19:54.613Z,86.20
2023-05-04T18:22:22.637Z,92.90
2023-05-04T18:24:50.588Z,98.10
2023-05-04T18:27:19.682Z,99.90
2023-05-04T18:29:49.549Z,99.90
2023-05-04T18:32:17.670Z,99.90
2023-05-04T18:34:47.823Z,99.90
2023-05-04T18:37:16.307Z,99.90
2023-05-04T18:39:44.291Z,99.90
2023-05-04T18:42:12.273Z,99.90
2023-05-04T18:44:41.441Z,99.90
2023-05-04T18:47:19.985Z,99.90
2023-05-04T18:49:51.027Z,99.90
2023-05-04T18:52:19.301Z,99.90
2023-05-04T18:54:49.488Z,99.90
2023-05-04T18:57:17.919Z,99.90
2023-05-04T18:59:47.780Z,99.90
2023-05-04T19:02:23.141Z,99.90
2023-05-04T19:04:52.206Z,99.90
2023-05-04T19:07:20.236Z,99.90
2023-05-04T19:09:56.450Z,99.90
2023-05-04T19:12:24.758Z,99.90
2023-05-04T19:14:52.864Z,99.90
2023-05-04T19:17:22.748Z,99.90
2023-05-04T19:19:50.819Z,99.90
2023-05-04T19:22:18.973Z,99.90
2023-05-04T19:24:51.393Z,99.90
2023-05-04T19:27:19.427Z,99.90
2023-05-04T19:29:47.998Z,99.90
2023-05-04T19:32:24.510Z,99.90
2023-05-04T19:34:55.877Z,99.90
2023-05-04T19:37:23.915Z,99.90
2023-05-04T19:39:51.980Z,99.90
2023-05-04T19:42:20.097Z,99.90
2023-05-04T19:44:48.343Z,99.90
2023-05-04T19:47:32.343Z,99.90
2023-05-04T19:50:01.848Z,99.90
2023-05-04T19:52:34.754Z,99.90
2023-05-04T19:55:03.062Z,99.90
2023-05-04T19:57:31.124Z,99.90
2023-05-04T20:00:00.819Z,99.90
2023-05-04T20:02:31.144Z,99.90
2023-05-04T20:04:59.273Z,99.90
2023-05-04T20:07:28.939Z,99.90
2023-05-04T20:09:57.532Z,99.90
2023-05-04T20:12:26.432Z,99.90
2023-05-04T20:14:54.795Z,99.90
2023-05-04T20:17:23.462Z,99.90
2023-05-04T20:19:51.767Z,99.90
2023-05-04T20:22:20.426Z,99.90
2023-05-04T20:24:50.393Z,99.90
2023-05-04T20:27:18.682Z,99.90
2023-05-04T20:29:46.846Z,99.90
2023-05-04T20:32:22.532Z,99.90
2023-05-04T20:34:50.644Z,99.90
2023-05-04T20:37:18.958Z,99.90
2023-05-04T20:39:47.240Z,99.90
2023-05-04T20:42:18.689Z,99.90
2023-05-04T20:44:47.089Z,99.90
2023-05-04T20:47:15.240Z,99.90
2023-05-04T20:49:43.453Z,99.90
2023-05-04T20:52:11.869Z,99.90
2023-05-04T20:54:40.460Z,99.90
2023-05-04T20:57:08.878Z,99.90
2023-05-04T20:59:38.301Z,99.90
2023-05-04T21:02:06.452Z,99.90
2023-05-04T21:04:34.507Z,99.90
2023-05-04T21:07:02.643Z,99.90
2023-05-04T21:09:30.981Z,99.90
2023-05-04T21:11:59.425Z,99.90
2023-05-04T21:14:29.454Z,99.90
2023-05-04T21:16:58.840Z,99.90
2023-05-04T21:19:26.967Z,99.90
2023-05-04T21:21:56.248Z,99.90
2023-05-04T21:24:24.236Z,99.90
2023-05-04T21:26:52.347Z,99.90
2023-05-04T21:29:20.329Z,99.90
2023-05-04T21:31:49.793Z,99.90
2023-05-04T21:34:19.568Z,99.90
2023-05-04T21:36:47.585Z,99.90
2023-05-04T21:39:16.746Z,99.90
2023-05-04T21:41:44.759Z,99.90
2023-05-04T21:44:12.819Z,99.90
2023-05-04T21:46:40.861Z,99.90
2023-05-04T21:49:08.937Z,99.90
2023-05-04T21:51:42.093Z,99.90
2023-05-04T21:54:11.263Z,99.90
2023-05-04T21:56:41.686Z,99.90
2023-05-04T21:59:11.951Z,99.90
2023-05-04T22:01:42.395Z,99.90
2023-05-04T22:04:17.331Z,99.90
2023-05-04T22:06:47.461Z,99.90
2023-05-04T22:09:19.604Z,99.90
2023-05-04T22:11:54.739Z,99.90
2023-05-04T22:14:25.676Z,99.90
2023-05-04T22:16:53.909Z,99.90
2023-05-04T22:19:27.941Z,99.90
2023-05-04T22:21:57.339Z,99.90
2023-05-04T22:24:26.423Z,99.90
2023-05-04T22:26:54.463Z,99.90
2023-05-04T22:29:34.532Z,99.90
2023-05-04T22:32:02.632Z,99.90
2023-05-04T22:34:30.651Z,99.90
2023-05-04T22:37:10.194Z,99.90
2023-05-04T22:40:06.095Z,99.90
2023-05-04T22:42:34.333Z,99.90
2023-05-04T22:45:02.344Z,99.90
2023-05-04T22:47:40.738Z,99.90
2023-05-04T22:50:10.402Z,99.90
2023-05-04T22:52:40.119Z,99.90
2023-05-04T22:55:09.400Z,99.90
2023-05-04T22:57:37.868Z,99.90
2023-05-04T23:00:08.406Z,99.90
2023-05-04T23:02:40.133Z,99.90
2023-05-04T23:05:10.618Z,99.90
2023-05-04T23:07:40.130Z,99.90
2023-05-04T23:10:09.266Z,99.90
2023-05-04T23:12:44.018Z,99.90
2023-05-04T23:15:28.639Z,99.90
2023-05-04T23:17:56.805Z,99.90
2023-05-04T23:20:24.968Z,99.90
2023-05-04T23:22:55.357Z,99.90
2023-05-04T23:25:23.350Z,99.90
2023-05-04T23:27:51.381Z,99.90
2023-05-04T23:30:19.512Z,99.90
2023-05-04T23:32:47.657Z,99.90
2023-05-04T23:35:15.758Z,99.90
2023-05-04T23:37:43.739Z,99.90
2023-05-04T23:40:13.616Z,99.90
2023-05-04T23:42:41.629Z,99.90
2023-05-04T23:45:11.628Z,99.90
2023-05-04T23:47:39.667Z,99.90
2023-05-04T23:50:10.035Z,99.90
2023-05-04T23:52:50.782Z,99.90
2023-05-04T23:55:22.584Z,99.90
2023-05-04T23:57:51.883Z,99.90
